sensor_id;sensor_type;location;lat;lon;timestamp;P1;durP1;ratioP1;P2;durP2;ratioP2
13469;SDS011;6807;48.682;9.032;2023-05-07T00:01:52;3.92;;;2.90;;
13469;SDS011;6807;48.682;9.032;2023-05-07T00:04:20;5.53;;;3.13;;
13469;SDS011;6807;48.682;9.032;2023-05-07T00:06:47;3.55;;;2.90;;
13469;SDS011;6807;48.682;9.032;2023-05-07T00:09:14;3.97;;;2.92;;
13469;SDS011;6807;48.682;9.032;2023-05-07T00:11:44;3.08;;;2.78;;
13469;SDS011;6807;48.682;9.032;2023-05-07T00:14:11;5.10;;;3.55;;
13469;SDS011;6807;48.682;9.032;2023-05-07T00:16:38;3.22;;;2.88;;
13469;SDS011;6807;48.682;9.032;2023-05-07T00:19:06;3.95;;;3.03;;
13469;SDS011;6807;48.682;9.032;2023-05-07T00:21:33;3.50;;;3.20;;
13469;SDS011;6807;48.682;9.032;2023-05-07T00:24:00;4.10;;;3.50;;
13469;SDS011;6807;48.682;9.032;2023-05-07T00:26:28;3.67;;;3.17;;
13469;SDS011;6807;48.682;9.032;2023-05-07T00:28:57;3.40;;;3.10;;
13469;SDS011;6807;48.682;9.032;2023-05-07T00:31:24;4.32;;;3.10;;
13469;SDS011;6807;48.682;9.032;2023-05-07T00:33:51;3.42;;;3.10;;
13469;SDS011;6807;48.682;9.032;2023-05-07T00:36:19;5.15;;;3.30;;
13469;SDS011;6807;48.682;9.032;2023-05-07T00:38:46;3.60;;;3.30;;
13469;SDS011;6807;48.682;9.032;2023-05-07T00:41:13;3.45;;;2.97;;
13469;SDS011;6807;48.682;9.032;2023-05-07T00:43:41;3.58;;;3.28;;
13469;SDS011;6807;48.682;9.032;2023-05-07T00:46:09;3.33;;;2.72;;
13469;SDS011;6807;48.682;9.032;2023-05-07T00:48:37;2.67;;;2.47;;
13469;SDS011;6807;48.682;9.032;2023-05-07T00:51:04;3.28;;;2.83;;
13469;SDS011;6807;48.682;9.032;2023-05-07T00:53:32;3.30;;;3.00;;
13469;SDS011;6807;48.682;9.032;2023-05-07T00:55:59;4.38;;;3.42;;
13469;SDS011;6807;48.682;9.032;2023-05-07T00:58:27;3.92;;;2.85;;
13469;SDS011;6807;48.682;9.032;2023-05-07T01:00:55;4.82;;;2.97;;
13469;SDS011;6807;48.682;9.032;2023-05-07T01:03:24;6.35;;;3.10;;
13469;SDS011;6807;48.682;9.032;2023-05-07T01:05:52;4.10;;;2.97;;
13469;SDS011;6807;48.682;9.032;2023-05-07T01:08:20;4.63;;;3.35;;
13469;SDS011;6807;48.682;9.032;2023-05-07T01:10:47;4.60;;;3.50;;
13469;SDS011;6807;48.682;9.032;2023-05-07T01:13:15;4.50;;;3.75;;
13469;SDS011;6807;48.682;9.032;2023-05-07T01:15:42;6.55;;;3.25;;
13469;SDS011;6807;48.682;9.032;2023-05-07T01:18:10;3.08;;;2.88;;
13469;SDS011;6807;48.682;9.032;2023-05-07T01:20:39;6.10;;;3.58;;
13469;SDS011;6807;48.682;9.032;2023-05-07T01:23:08;3.55;;;3.22;;
13469;SDS011;6807;48.682;9.032;2023-05-07T01:25:35;3.50;;;3.10;;
13469;SDS011;6807;48.682;9.032;2023-05-07T01:28:03;4.32;;;2.92;;
13469;SDS011;6807;48.682;9.032;2023-05-07T01:30:31;5.53;;;3.33;;
13469;SDS011;6807;48.682;9.032;2023-05-07T01:33:00;4.68;;;3.10;;
13469;SDS011;6807;48.682;9.032;2023-05-07T01:35:32;3.60;;;3.28;;
13469;SDS011;6807;48.682;9.032;2023-05-07T01:38:02;3.30;;;3.00;;
13469;SDS011;6807;48.682;9.032;2023-05-07T01:40:32;4.38;;;3.35;;
13469;SDS011;6807;48.682;9.032;2023-05-07T01:43:00;3.60;;;3.13;;
13469;SDS011;6807;48.682;9.032;2023-05-07T01:45:29;5.20;;;4.03;;
13469;SDS011;6807;48.682;9.032;2023-05-07T01:47:57;3.38;;;3.10;;
13469;SDS011;6807;48.682;9.032;2023-05-07T01:50:25;5.05;;;3.38;;
13469;SDS011;6807;48.682;9.032;2023-05-07T01:52:52;4.95;;;3.60;;
13469;SDS011;6807;48.682;9.032;2023-05-07T01:55:19;4.30;;;3.85;;
13469;SDS011;6807;48.682;9.032;2023-05-07T01:57:48;3.97;;;3.58;;
13469;SDS011;6807;48.682;9.032;2023-05-07T02:00:16;3.80;;;3.47;;
13469;SDS011;6807;48.682;9.032;2023-05-07T02:02:44;4.78;;;3.30;;
13469;SDS011;6807;48.682;9.032;2023-05-07T02:05:11;7.22;;;3.67;;
13469;SDS011;6807;48.682;9.032;2023-05-07T02:07:38;4.35;;;3.83;;
13469;SDS011;6807;48.682;9.032;2023-05-07T02:10:06;3.65;;;3.28;;
13469;SDS011;6807;48.682;9.032;2023-05-07T02:12:33;3.88;;;3.42;;
13469;SDS011;6807;48.682;9.032;2023-05-07T02:15:02;4.03;;;3.60;;
13469;SDS011;6807;48.682;9.032;2023-05-07T02:17:30;4.13;;;3.30;;
13469;SDS011;6807;48.682;9.032;2023-05-07T02:19:58;5.00;;;3.55;;
13469;SDS011;6807;48.682;9.032;2023-05-07T02:22:25;3.20;;;2.90;;
13469;SDS011;6807;48.682;9.032;2023-05-07T02:24:52;4.30;;;3.42;;
13469;SDS011;6807;48.682;9.032;2023-05-07T02:27:20;4.63;;;3.20;;
13469;SDS011;6807;48.682;9.032;2023-05-07T02:29:47;3.42;;;3.13;;
13469;SDS011;6807;48.682;9.032;2023-05-07T02:32:16;5.60;;;3.60;;
13469;SDS011;6807;48.682;9.032;2023-05-07T02:34:43;4.75;;;3.90;;
13469;SDS011;6807;48.682;9.032;2023-05-07T02:37:10;7.25;;;4.00;;
13469;SDS011;6807;48.682;9.032;2023-05-07T02:39:38;5.30;;;3.55;;
13469;SDS011;6807;48.682;9.032;2023-05-07T02:42:05;3.50;;;3.20;;
13469;SDS011;6807;48.682;9.032;2023-05-07T02:44:32;4.38;;;3.97;;
13469;SDS011;6807;48.682;9.032;2023-05-07T02:47:00;3.95;;;3.60;;
13469;SDS011;6807;48.682;9.032;2023-05-07T02:49:29;3.92;;;3.28;;
13469;SDS011;6807;48.682;9.032;2023-05-07T02:51:56;5.53;;;3.80;;
13469;SDS011;6807;48.682;9.032;2023-05-07T02:54:24;4.18;;;3.78;;
13469;SDS011;6807;48.682;9.032;2023-05-07T02:56:51;6.18;;;3.90;;
13469;SDS011;6807;48.682;9.032;2023-05-07T02:59:18;5.38;;;3.70;;
13469;SDS011;6807;48.682;9.032;2023-05-07T03:01:46;5.50;;;3.95;;
13469;SDS011;6807;48.682;9.032;2023-05-07T03:04:13;3.67;;;3.25;;
13469;SDS011;6807;48.682;9.032;2023-05-07T03:06:42;4.13;;;3.58;;
13469;SDS011;6807;48.682;9.032;2023-05-07T03:09:09;3.78;;;3.38;;
13469;SDS011;6807;48.682;9.032;2023-05-07T03:11:37;4.43;;;3.50;;
13469;SDS011;6807;48.682;9.032;2023-05-07T03:14:04;6.22;;;4.10;;
13469;SDS011;6807;48.682;9.032;2023-05-07T03:16:31;4.63;;;3.67;;
13469;SDS011;6807;48.682;9.032;2023-05-07T03:18:59;4.05;;;3.60;;
13469;SDS011;6807;48.682;9.032;2023-05-07T03:21:26;4.20;;;3.80;;
13469;SDS011;6807;48.682;9.032;2023-05-07T03:23:55;4.43;;;3.78;;
13469;SDS011;6807;48.682;9.032;2023-05-07T03:26:22;5.18;;;3.97;;
13469;SDS011;6807;48.682;9.032;2023-05-07T03:28:50;6.40;;;3.63;;
13469;SDS011;6807;48.682;9.032;2023-05-07T03:31:17;5.28;;;3.58;;
13469;SDS011;6807;48.682;9.032;2023-05-07T03:33:51;4.28;;;3.88;;
13469;SDS011;6807;48.682;9.032;2023-05-07T03:36:18;4.20;;;3.80;;
13469;SDS011;6807;48.682;9.032;2023-05-07T03:38:46;4.05;;;3.65;;
13469;SDS011;6807;48.682;9.032;2023-05-07T03:41:14;4.45;;;3.90;;
13469;SDS011;6807;48.682;9.032;2023-05-07T03:43:42;4.43;;;3.55;;
13469;SDS011;6807;48.682;9.032;2023-05-07T03:46:10;4.15;;;3.75;;
13469;SDS011;6807;48.682;9.032;2023-05-07T03:48:37;4.50;;;4.03;;
13469;SDS011;6807;48.682;9.032;2023-05-07T03:51:04;5.80;;;3.60;;
13469;SDS011;6807;48.682;9.032;2023-05-07T03:53:32;4.85;;;3.83;;
13469;SDS011;6807;48.682;9.032;2023-05-07T03:55:59;4.18;;;3.78;;
13469;SDS011;6807;48.682;9.032;2023-05-07T03:58:28;5.90;;;3.67;;
13469;SDS011;6807;48.682;9.032;2023-05-07T04:00:55;5.90;;;3.65;;
13469;SDS011;6807;48.682;9.032;2023-05-07T04:03:22;4.13;;;3.72;;
13469;SDS011;6807;48.682;9.032;2023-05-07T04:05:50;3.70;;;3.28;;
13469;SDS011;6807;48.682;9.032;2023-05-07T04:08:17;9.98;;;4.80;;
13469;SDS011;6807;48.682;9.032;2023-05-07T04:10:44;5.25;;;4.00;;
13469;SDS011;6807;48.682;9.032;2023-05-07T04:13:11;6.63;;;4.20;;
13469;SDS011;6807;48.682;9.032;2023-05-07T04:15:40;5.00;;;3.97;;
13469;SDS011;6807;48.682;9.032;2023-05-07T04:18:07;4.28;;;3.63;;
13469;SDS011;6807;48.682;9.032;2023-05-07T04:20:35;4.47;;;3.83;;
13469;SDS011;6807;48.682;9.032;2023-05-07T04:23:02;6.25;;;4.60;;
13469;SDS011;6807;48.682;9.032;2023-05-07T04:25:30;6.28;;;4.72;;
13469;SDS011;6807;48.682;9.032;2023-05-07T04:27:57;7.22;;;3.92;;
13469;SDS011;6807;48.682;9.032;2023-05-07T04:30:24;9.85;;;4.13;;
13469;SDS011;6807;48.682;9.032;2023-05-07T04:32:53;5.82;;;4.10;;
13469;SDS011;6807;48.682;9.032;2023-05-07T04:35:21;5.60;;;3.42;;
13469;SDS011;6807;48.682;9.032;2023-05-07T04:37:48;5.25;;;4.20;;
13469;SDS011;6807;48.682;9.032;2023-05-07T04:40:15;7.03;;;3.67;;
13469;SDS011;6807;48.682;9.032;2023-05-07T04:42:43;5.70;;;4.22;;
13469;SDS011;6807;48.682;9.032;2023-05-07T04:45:11;4.38;;;3.90;;
13469;SDS011;6807;48.682;9.032;2023-05-07T04:47:38;5.20;;;4.00;;
13469;SDS011;6807;48.682;9.032;2023-05-07T04:50:08;6.72;;;4.53;;
13469;SDS011;6807;48.682;9.032;2023-05-07T04:52:35;4.20;;;3.70;;
13469;SDS011;6807;48.682;9.032;2023-05-07T04:55:03;4.65;;;4.18;;
13469;SDS011;6807;48.682;9.032;2023-05-07T04:57:31;5.65;;;4.10;;
13469;SDS011;6807;48.682;9.032;2023-05-07T04:59:58;4.40;;;4.00;;
13469;SDS011;6807;48.682;9.032;2023-05-07T05:02:25;4.47;;;3.67;;
13469;SDS011;6807;48.682;9.032;2023-05-07T05:04:53;5.40;;;4.10;;
13469;SDS011;6807;48.682;9.032;2023-05-07T05:07:23;7.03;;;4.22;;
13469;SDS011;6807;48.682;9.032;2023-05-07T05:09:51;5.25;;;3.88;;
13469;SDS011;6807;48.682;9.032;2023-05-07T05:12:18;4.18;;;3.78;;
13469;SDS011;6807;48.682;9.032;2023-05-07T05:14:45;4.13;;;3.70;;
13469;SDS011;6807;48.682;9.032;2023-05-07T05:17:13;7.15;;;4.70;;
13469;SDS011;6807;48.682;9.032;2023-05-07T05:19:40;4.93;;;4.22;;
13469;SDS011;6807;48.682;9.032;2023-05-07T05:22:07;5.00;;;3.78;;
13469;SDS011;6807;48.682;9.032;2023-05-07T05:24:36;4.53;;;4.13;;
13469;SDS011;6807;48.682;9.032;2023-05-07T05:27:03;7.80;;;3.63;;
13469;SDS011;6807;48.682;9.032;2023-05-07T05:29:31;4.10;;;3.70;;
13469;SDS011;6807;48.682;9.032;2023-05-07T05:31:58;4.32;;;3.55;;
13469;SDS011;6807;48.682;9.032;2023-05-07T05:34:25;5.80;;;3.90;;
13469;SDS011;6807;48.682;9.032;2023-05-07T05:36:53;4.38;;;3.78;;
13469;SDS011;6807;48.682;9.032;2023-05-07T05:39:20;4.43;;;4.03;;
13469;SDS011;6807;48.682;9.032;2023-05-07T05:41:49;6.72;;;3.70;;
13469;SDS011;6807;48.682;9.032;2023-05-07T05:44:17;4.05;;;3.33;;
13469;SDS011;6807;48.682;9.032;2023-05-07T05:46:44;4.15;;;3.30;;
13469;SDS011;6807;48.682;9.032;2023-05-07T05:49:11;4.13;;;3.65;;
13469;SDS011;6807;48.682;9.032;2023-05-07T05:51:39;4.80;;;3.50;;
13469;SDS011;6807;48.682;9.032;2023-05-07T05:54:06;4.57;;;3.47;;
13469;SDS011;6807;48.682;9.032;2023-05-07T05:56:33;7.40;;;3.70;;
13469;SDS011;6807;48.682;9.032;2023-05-07T05:59:02;4.80;;;3.72;;
13469;SDS011;6807;48.682;9.032;2023-05-07T06:01:29;5.05;;;4.07;;
13469;SDS011;6807;48.682;9.032;2023-05-07T06:03:57;3.83;;;3.50;;
13469;SDS011;6807;48.682;9.032;2023-05-07T06:06:24;4.10;;;3.45;;
13469;SDS011;6807;48.682;9.032;2023-05-07T06:08:52;4.57;;;4.00;;
13469;SDS011;6807;48.682;9.032;2023-05-07T06:11:19;5.82;;;4.25;;
13469;SDS011;6807;48.682;9.032;2023-05-07T06:13:47;4.80;;;3.80;;
13469;SDS011;6807;48.682;9.032;2023-05-07T06:16:16;3.78;;;3.35;;
13469;SDS011;6807;48.682;9.032;2023-05-07T06:18:43;6.45;;;3.88;;
13469;SDS011;6807;48.682;9.032;2023-05-07T06:21:11;5.30;;;3.00;;
13469;SDS011;6807;48.682;9.032;2023-05-07T06:23:39;3.50;;;3.00;;
13469;SDS011;6807;48.682;9.032;2023-05-07T06:26:06;6.80;;;3.15;;
13469;SDS011;6807;48.682;9.032;2023-05-07T06:28:33;3.22;;;2.80;;
13469;SDS011;6807;48.682;9.032;2023-05-07T06:31:11;2.65;;;2.45;;
13469;SDS011;6807;48.682;9.032;2023-05-07T06:33:40;3.08;;;2.75;;
13469;SDS011;6807;48.682;9.032;2023-05-07T06:36:07;4.25;;;2.60;;
13469;SDS011;6807;48.682;9.032;2023-05-07T06:38:35;3.53;;;2.65;;
13469;SDS011;6807;48.682;9.032;2023-05-07T06:41:02;2.90;;;2.60;;
13469;SDS011;6807;48.682;9.032;2023-05-07T06:43:29;3.50;;;2.78;;
13469;SDS011;6807;48.682;9.032;2023-05-07T06:45:57;2.40;;;2.20;;
13469;SDS011;6807;48.682;9.032;2023-05-07T06:48:24;3.53;;;2.70;;
13469;SDS011;6807;48.682;9.032;2023-05-07T06:50:53;4.78;;;2.55;;
13469;SDS011;6807;48.682;9.032;2023-05-07T06:53:22;3.65;;;2.60;;
13469;SDS011;6807;48.682;9.032;2023-05-07T06:55:51;3.42;;;2.80;;
13469;SDS011;6807;48.682;9.032;2023-05-07T06:58:18;2.72;;;2.50;;
13469;SDS011;6807;48.682;9.032;2023-05-07T07:00:45;6.45;;;2.28;;
13469;SDS011;6807;48.682;9.032;2023-05-07T07:03:12;2.95;;;2.65;;
13469;SDS011;6807;48.682;9.032;2023-05-07T07:05:40;4.03;;;2.60;;
13469;SDS011;6807;48.682;9.032;2023-05-07T07:08:09;2.60;;;2.40;;
13469;SDS011;6807;48.682;9.032;2023-05-07T07:10:36;2.63;;;2.42;;
13469;SDS011;6807;48.682;9.032;2023-05-07T07:13:03;2.70;;;2.50;;
13469;SDS011;6807;48.682;9.032;2023-05-07T07:15:30;2.60;;;2.40;;
13469;SDS011;6807;48.682;9.032;2023-05-07T07:17:57;2.80;;;2.55;;
13469;SDS011;6807;48.682;9.032;2023-05-07T07:20:25;3.08;;;2.50;;
13469;SDS011;6807;48.682;9.032;2023-05-07T07:22:52;2.85;;;2.65;;
13469;SDS011;6807;48.682;9.032;2023-05-07T07:25:21;3.72;;;2.50;;
13469;SDS011;6807;48.682;9.032;2023-05-07T07:27:48;2.92;;;2.63;;
13469;SDS011;6807;48.682;9.032;2023-05-07T07:30:15;4.63;;;2.72;;
13469;SDS011;6807;48.682;9.032;2023-05-07T07:32:43;3.20;;;2.63;;
13469;SDS011;6807;48.682;9.032;2023-05-07T07:35:10;2.92;;;2.60;;
13469;SDS011;6807;48.682;9.032;2023-05-07T07:37:37;2.65;;;2.45;;
13469;SDS011;6807;48.682;9.032;2023-05-07T07:40:04;3.08;;;2.78;;
13469;SDS011;6807;48.682;9.032;2023-05-07T07:42:34;2.80;;;2.60;;
13469;SDS011;6807;48.682;9.032;2023-05-07T07:45:01;5.45;;;2.33;;
13469;SDS011;6807;48.682;9.032;2023-05-07T07:47:28;3.13;;;2.70;;
13469;SDS011;6807;48.682;9.032;2023-05-07T07:49:55;2.83;;;2.30;;
13469;SDS011;6807;48.682;9.032;2023-05-07T07:52:22;3.08;;;2.25;;
13469;SDS011;6807;48.682;9.032;2023-05-07T07:54:50;5.22;;;2.72;;
13469;SDS011;6807;48.682;9.032;2023-05-07T07:57:17;3.05;;;2.30;;
13469;SDS011;6807;48.682;9.032;2023-05-07T07:59:45;2.72;;;2.30;;
13469;SDS011;6807;48.682;9.032;2023-05-07T08:02:12;2.60;;;2.40;;
13469;SDS011;6807;48.682;9.032;2023-05-07T08:04:39;2.90;;;2.40;;
13469;SDS011;6807;48.682;9.032;2023-05-07T08:07:08;3.72;;;2.28;;
13469;SDS011;6807;48.682;9.032;2023-05-07T08:09:35;3.25;;;2.10;;
13469;SDS011;6807;48.682;9.032;2023-05-07T08:12:03;2.55;;;2.35;;
13469;SDS011;6807;48.682;9.032;2023-05-07T08:14:30;4.78;;;2.13;;
13469;SDS011;6807;48.682;9.032;2023-05-07T08:16:59;3.83;;;2.28;;
13469;SDS011;6807;48.682;9.032;2023-05-07T08:19:34;2.97;;;2.17;;
13469;SDS011;6807;48.682;9.032;2023-05-07T08:22:02;3.85;;;2.13;;
13469;SDS011;6807;48.682;9.032;2023-05-07T08:24:29;2.47;;;2.28;;
13469;SDS011;6807;48.682;9.032;2023-05-07T08:26:56;2.28;;;2.03;;
13469;SDS011;6807;48.682;9.032;2023-05-07T08:29:23;2.75;;;2.17;;
13469;SDS011;6807;48.682;9.032;2023-05-07T08:31:51;4.25;;;2.40;;
13469;SDS011;6807;48.682;9.032;2023-05-07T08:34:20;2.03;;;1.75;;
13469;SDS011;6807;48.682;9.032;2023-05-07T08:36:48;2.58;;;1.90;;
13469;SDS011;6807;48.682;9.032;2023-05-07T08:39:16;3.28;;;2.00;;
13469;SDS011;6807;48.682;9.032;2023-05-07T08:44:35;3.25;;;2.38;;
13469;SDS011;6807;48.682;9.032;2023-05-07T08:47:07;2.75;;;1.90;;
13469;SDS011;6807;48.682;9.032;2023-05-07T08:49:35;2.42;;;1.80;;
13469;SDS011;6807;48.682;9.032;2023-05-07T08:52:03;4.07;;;2.00;;
13469;SDS011;6807;48.682;9.032;2023-05-07T08:54:31;2.72;;;2.03;;
13469;SDS011;6807;48.682;9.032;2023-05-07T08:56:59;2.03;;;1.77;;
13469;SDS011;6807;48.682;9.032;2023-05-07T08:59:27;3.90;;;2.42;;
13469;SDS011;6807;48.682;9.032;2023-05-07T09:01:55;2.80;;;2.38;;
13469;SDS011;6807;48.682;9.032;2023-05-07T09:04:22;2.55;;;1.80;;
13469;SDS011;6807;48.682;9.032;2023-05-07T09:06:51;1.88;;;1.67;;
13469;SDS011;6807;48.682;9.032;2023-05-07T09:09:18;2.65;;;1.80;;
13469;SDS011;6807;48.682;9.032;2023-05-07T09:11:47;3.33;;;1.90;;
13469;SDS011;6807;48.682;9.032;2023-05-07T09:14:15;5.97;;;2.03;;
13469;SDS011;6807;48.682;9.032;2023-05-07T09:16:42;5.10;;;1.90;;
13469;SDS011;6807;48.682;9.032;2023-05-07T09:19:10;2.22;;;1.92;;
13469;SDS011;6807;48.682;9.032;2023-05-07T09:21:37;2.45;;;2.15;;
13469;SDS011;6807;48.682;9.032;2023-05-07T09:24:06;4.22;;;2.20;;
13469;SDS011;6807;48.682;9.032;2023-05-07T09:26:33;3.20;;;2.10;;
13469;SDS011;6807;48.682;9.032;2023-05-07T09:29:02;3.63;;;1.92;;
13469;SDS011;6807;48.682;9.032;2023-05-07T09:31:29;2.30;;;2.03;;
13469;SDS011;6807;48.682;9.032;2023-05-07T09:33:57;5.30;;;2.50;;
13469;SDS011;6807;48.682;9.032;2023-05-07T09:36:26;2.63;;;2.15;;
13469;SDS011;6807;48.682;9.032;2023-05-07T09:38:54;3.42;;;2.00;;
13469;SDS011;6807;48.682;9.032;2023-05-07T09:41:23;5.30;;;2.35;;
13469;SDS011;6807;48.682;9.032;2023-05-07T09:43:53;2.28;;;2.08;;
13469;SDS011;6807;48.682;9.032;2023-05-07T09:46:24;3.20;;;2.15;;
13469;SDS011;6807;48.682;9.032;2023-05-07T09:48:56;2.60;;;2.40;;
13469;SDS011;6807;48.682;9.032;2023-05-07T09:51:25;2.33;;;2.05;;
13469;SDS011;6807;48.682;9.032;2023-05-07T09:53:56;2.35;;;1.83;;
13469;SDS011;6807;48.682;9.032;2023-05-07T09:56:26;2.20;;;2.00;;
13469;SDS011;6807;48.682;9.032;2023-05-07T09:58:55;3.65;;;2.20;;
13469;SDS011;6807;48.682;9.032;2023-05-07T10:01:25;3.13;;;2.25;;
13469;SDS011;6807;48.682;9.032;2023-05-07T10:03:53;2.30;;;2.10;;
13469;SDS011;6807;48.682;9.032;2023-05-07T10:06:21;2.42;;;1.75;;
13469;SDS011;6807;48.682;9.032;2023-05-07T10:08:51;3.38;;;2.35;;
13469;SDS011;6807;48.682;9.032;2023-05-07T10:11:19;4.90;;;2.50;;
13469;SDS011;6807;48.682;9.032;2023-05-07T10:13:49;2.38;;;1.90;;
13469;SDS011;6807;48.682;9.032;2023-05-07T10:16:18;3.20;;;2.30;;
13469;SDS011;6807;48.682;9.032;2023-05-07T10:18:46;2.75;;;2.20;;
13469;SDS011;6807;48.682;9.032;2023-05-07T10:21:15;2.92;;;2.13;;
13469;SDS011;6807;48.682;9.032;2023-05-07T10:23:44;2.55;;;2.08;;
13469;SDS011;6807;48.682;9.032;2023-05-07T10:26:15;3.25;;;2.47;;
13469;SDS011;6807;48.682;9.032;2023-05-07T10:28:45;3.45;;;2.25;;
13469;SDS011;6807;48.682;9.032;2023-05-07T10:31:23;6.35;;;2.20;;
13469;SDS011;6807;48.682;9.032;2023-05-07T10:34:16;3.30;;;2.53;;
13469;SDS011;6807;48.682;9.032;2023-05-07T10:36:46;2.85;;;2.08;;
13469;SDS011;6807;48.682;9.032;2023-05-07T10:39:14;2.92;;;2.05;;
13469;SDS011;6807;48.682;9.032;2023-05-07T10:41:41;3.75;;;2.40;;
13469;SDS011;6807;48.682;9.032;2023-05-07T10:44:08;2.67;;;2.20;;
13469;SDS011;6807;48.682;9.032;2023-05-07T10:46:37;3.05;;;2.13;;
13469;SDS011;6807;48.682;9.032;2023-05-07T10:49:10;2.45;;;2.20;;
13469;SDS011;6807;48.682;9.032;2023-05-07T10:51:37;3.28;;;1.98;;
13469;SDS011;6807;48.682;9.032;2023-05-07T10:54:18;2.08;;;1.88;;
13469;SDS011;6807;48.682;9.032;2023-05-07T10:56:46;3.00;;;2.00;;
13469;SDS011;6807;48.682;9.032;2023-05-07T10:59:31;3.67;;;2.08;;
13469;SDS011;6807;48.682;9.032;2023-05-07T11:02:10;3.40;;;1.95;;
13469;SDS011;6807;48.682;9.032;2023-05-07T11:04:39;1.80;;;1.70;;
13469;SDS011;6807;48.682;9.032;2023-05-07T11:10:01;2.92;;;1.60;;
13469;SDS011;6807;48.682;9.032;2023-05-07T11:15:38;3.13;;;1.88;;
13469;SDS011;6807;48.682;9.032;2023-05-07T11:18:10;3.83;;;2.35;;
13469;SDS011;6807;48.682;9.032;2023-05-07T11:20:50;2.67;;;2.20;;
13469;SDS011;6807;48.682;9.032;2023-05-07T11:26:43;2.70;;;2.22;;
13469;SDS011;6807;48.682;9.032;2023-05-07T11:29:12;3.13;;;2.05;;
13469;SDS011;6807;48.682;9.032;2023-05-07T11:31:40;2.10;;;1.88;;
13469;SDS011;6807;48.682;9.032;2023-05-07T11:34:09;4.72;;;2.08;;
13469;SDS011;6807;48.682;9.032;2023-05-07T11:36:42;3.58;;;2.00;;
13469;SDS011;6807;48.682;9.032;2023-05-07T11:39:25;2.25;;;2.00;;
13469;SDS011;6807;48.682;9.032;2023-05-07T11:41:53;2.22;;;1.80;;
13469;SDS011;6807;48.682;9.032;2023-05-07T11:44:21;4.70;;;2.20;;
13469;SDS011;6807;48.682;9.032;2023-05-07T11:46:48;3.42;;;2.03;;
13469;SDS011;6807;48.682;9.032;2023-05-07T11:49:18;3.75;;;1.85;;
13469;SDS011;6807;48.682;9.032;2023-05-07T11:51:45;3.20;;;2.17;;
13469;SDS011;6807;48.682;9.032;2023-05-07T11:54:15;3.40;;;2.20;;
13469;SDS011;6807;48.682;9.032;2023-05-07T11:56:43;2.17;;;1.98;;
13469;SDS011;6807;48.682;9.032;2023-05-07T11:59:17;2.50;;;2.30;;
13469;SDS011;6807;48.682;9.032;2023-05-07T12:01:45;2.67;;;2.10;;
13469;SDS011;6807;48.682;9.032;2023-05-07T12:04:13;4.22;;;1.98;;
13469;SDS011;6807;48.682;9.032;2023-05-07T12:06:42;2.33;;;1.75;;
13469;SDS011;6807;48.682;9.032;2023-05-07T12:09:23;1.58;;;1.48;;
13469;SDS011;6807;48.682;9.032;2023-05-07T12:11:51;3.22;;;1.20;;
13469;SDS011;6807;48.682;9.032;2023-05-07T12:14:19;1.25;;;1.15;;
13469;SDS011;6807;48.682;9.032;2023-05-07T12:16:46;2.95;;;1.65;;
13469;SDS011;6807;48.682;9.032;2023-05-07T12:19:13;2.13;;;1.20;;
13469;SDS011;6807;48.682;9.032;2023-05-07T12:21:44;2.17;;;1.40;;
13469;SDS011;6807;48.682;9.032;2023-05-07T12:24:12;1.77;;;1.30;;
13469;SDS011;6807;48.682;9.032;2023-05-07T12:26:41;1.42;;;1.25;;
13469;SDS011;6807;48.682;9.032;2023-05-07T12:29:09;4.88;;;1.85;;
13469;SDS011;6807;48.682;9.032;2023-05-07T12:31:43;3.50;;;1.70;;
13469;SDS011;6807;48.682;9.032;2023-05-07T12:34:11;2.20;;;1.70;;
13469;SDS011;6807;48.682;9.032;2023-05-07T12:36:38;2.85;;;1.40;;
13469;SDS011;6807;48.682;9.032;2023-05-07T12:39:07;3.05;;;1.95;;
13469;SDS011;6807;48.682;9.032;2023-05-07T12:41:52;6.35;;;2.30;;
13469;SDS011;6807;48.682;9.032;2023-05-07T12:44:21;5.57;;;2.22;;
13469;SDS011;6807;48.682;9.032;2023-05-07T12:46:49;8.77;;;3.72;;
13469;SDS011;6807;48.682;9.032;2023-05-07T12:49:16;7.47;;;2.75;;
13469;SDS011;6807;48.682;9.032;2023-05-07T12:51:44;9.77;;;3.60;;
13469;SDS011;6807;48.682;9.032;2023-05-07T12:54:14;8.07;;;3.67;;
13469;SDS011;6807;48.682;9.032;2023-05-07T12:56:59;12.00;;;4.22;;
13469;SDS011;6807;48.682;9.032;2023-05-07T12:59:30;6.28;;;3.20;;
13469;SDS011;6807;48.682;9.032;2023-05-07T13:01:58;8.00;;;3.42;;
13469;SDS011;6807;48.682;9.032;2023-05-07T13:04:25;7.32;;;3.40;;
13469;SDS011;6807;48.682;9.032;2023-05-07T13:07:04;8.38;;;3.78;;
13469;SDS011;6807;48.682;9.032;2023-05-07T13:09:33;6.35;;;3.40;;
13469;SDS011;6807;48.682;9.032;2023-05-07T13:12:02;6.53;;;3.35;;
13469;SDS011;6807;48.682;9.032;2023-05-07T13:14:31;5.88;;;3.17;;
13469;SDS011;6807;48.682;9.032;2023-05-07T13:16:58;5.53;;;3.47;;
13469;SDS011;6807;48.682;9.032;2023-05-07T13:19:25;7.82;;;3.22;;
13469;SDS011;6807;48.682;9.032;2023-05-07T13:21:52;11.40;;;4.13;;
13469;SDS011;6807;48.682;9.032;2023-05-07T13:24:20;6.10;;;3.28;;
13469;SDS011;6807;48.682;9.032;2023-05-07T13:26:48;6.57;;;3.53;;
13469;SDS011;6807;48.682;9.032;2023-05-07T13:29:15;7.50;;;4.57;;
13469;SDS011;6807;48.682;9.032;2023-05-07T13:31:42;6.90;;;4.10;;
13469;SDS011;6807;48.682;9.032;2023-05-07T13:34:09;5.40;;;3.72;;
13469;SDS011;6807;48.682;9.032;2023-05-07T13:36:37;4.07;;;2.90;;
13469;SDS011;6807;48.682;9.032;2023-05-07T13:39:04;7.03;;;3.40;;
13469;SDS011;6807;48.682;9.032;2023-05-07T13:41:32;3.67;;;2.83;;
13469;SDS011;6807;48.682;9.032;2023-05-07T13:44:00;11.07;;;6.93;;
13469;SDS011;6807;48.682;9.032;2023-05-07T13:46:27;6.93;;;6.00;;
13469;SDS011;6807;48.682;9.032;2023-05-07T13:48:55;6.35;;;3.83;;
13469;SDS011;6807;48.682;9.032;2023-05-07T13:51:22;6.38;;;4.45;;
13469;SDS011;6807;48.682;9.032;2023-05-07T13:53:49;4.90;;;3.65;;
13469;SDS011;6807;48.682;9.032;2023-05-07T13:56:17;7.30;;;3.50;;
13469;SDS011;6807;48.682;9.032;2023-05-07T13:58:45;5.75;;;3.50;;
13469;SDS011;6807;48.682;9.032;2023-05-07T14:01:13;5.63;;;3.70;;
13469;SDS011;6807;48.682;9.032;2023-05-07T14:03:40;5.57;;;3.63;;
13469;SDS011;6807;48.682;9.032;2023-05-07T14:06:07;5.22;;;4.28;;
13469;SDS011;6807;48.682;9.032;2023-05-07T14:08:35;7.70;;;4.55;;
13469;SDS011;6807;48.682;9.032;2023-05-07T14:11:02;6.07;;;4.50;;
13469;SDS011;6807;48.682;9.032;2023-05-07T14:13:29;6.07;;;3.65;;
13469;SDS011;6807;48.682;9.032;2023-05-07T14:15:56;6.53;;;3.58;;
13469;SDS011;6807;48.682;9.032;2023-05-07T14:18:25;5.13;;;4.05;;
13469;SDS011;6807;48.682;9.032;2023-05-07T14:20:53;4.90;;;3.55;;
13469;SDS011;6807;48.682;9.032;2023-05-07T14:23:21;4.00;;;3.40;;
13469;SDS011;6807;48.682;9.032;2023-05-07T14:25:51;3.85;;;3.05;;
13469;SDS011;6807;48.682;9.032;2023-05-07T14:28:18;5.13;;;3.33;;
13469;SDS011;6807;48.682;9.032;2023-05-07T14:30:46;9.75;;;4.03;;
13469;SDS011;6807;48.682;9.032;2023-05-07T14:33:14;7.65;;;3.38;;
13469;SDS011;6807;48.682;9.032;2023-05-07T14:35:42;4.30;;;3.33;;
13469;SDS011;6807;48.682;9.032;2023-05-07T14:38:14;3.80;;;2.70;;
13469;SDS011;6807;48.682;9.032;2023-05-07T14:40:41;5.03;;;3.20;;
13469;SDS011;6807;48.682;9.032;2023-05-07T14:43:09;4.97;;;3.40;;
13469;SDS011;6807;48.682;9.032;2023-05-07T14:45:36;2.97;;;2.53;;
13469;SDS011;6807;48.682;9.032;2023-05-07T14:48:03;4.57;;;3.05;;
13469;SDS011;6807;48.682;9.032;2023-05-07T14:50:31;5.30;;;3.35;;
13469;SDS011;6807;48.682;9.032;2023-05-07T14:52:59;2.58;;;2.38;;
13469;SDS011;6807;48.682;9.032;2023-05-07T14:55:26;4.85;;;3.10;;
13469;SDS011;6807;48.682;9.032;2023-05-07T14:57:53;5.82;;;3.03;;
13469;SDS011;6807;48.682;9.032;2023-05-07T15:00:22;4.90;;;2.97;;
13469;SDS011;6807;48.682;9.032;2023-05-07T15:02:49;3.22;;;2.60;;
13469;SDS011;6807;48.682;9.032;2023-05-07T15:05:17;3.08;;;2.78;;
13469;SDS011;6807;48.682;9.032;2023-05-07T15:07:44;3.88;;;3.17;;
13469;SDS011;6807;48.682;9.032;2023-05-07T15:10:13;4.65;;;3.22;;
13469;SDS011;6807;48.682;9.032;2023-05-07T15:12:40;4.40;;;4.00;;
13469;SDS011;6807;48.682;9.032;2023-05-07T15:15:08;4.82;;;3.13;;
13469;SDS011;6807;48.682;9.032;2023-05-07T15:17:36;5.75;;;4.15;;
13469;SDS011;6807;48.682;9.032;2023-05-07T15:20:05;4.22;;;3.35;;